createdAt,value
2023-01-21T00:00:24.509Z,63.30
2023-01-21T00:02:52.335Z,62.90
2023-01-21T00:05:21.531Z,62.60
2023-01-21T00:07:49.393Z,62.60
2023-01-21T00:10:18.725Z,62.70
2023-01-21T00:12:46.759Z,62.90
2023-01-21T00:15:14.712Z,62.90
2023-01-21T00:17:43.899Z,62.80
2023-01-21T00:20:12.735Z,62.90
2023-01-21T00:22:41.960Z,62.90
2023-01-21T00:25:10.365Z,63.10
2023-01-21T00:27:38.319Z,63.30
2023-01-21T00:30:07.229Z,63.10
2023-01-21T00:32:36.201Z,63.20
2023-01-21T00:35:04.205Z,63.10
2023-01-21T00:37:32.052Z,63.20
2023-01-21T00:40:01.307Z,63.10
2023-01-21T00:42:29.904Z,63.20
2023-01-21T00:44:58.652Z,63.50
2023-01-21T00:47:26.512Z,63.50
2023-01-21T00:49:54.362Z,63.10
2023-01-21T00:52:22.260Z,62.70
2023-01-21T00:54:50.125Z,62.70
2023-01-21T00:57:19.349Z,62.80
2023-01-21T00:59:47.471Z,62.80
2023-01-21T01:02:15.366Z,63.00
2023-01-21T01:04:43.330Z,62.90
2023-01-21T01:07:11.702Z,62.90
2023-01-21T01:09:39.618Z,63.00
2023-01-21T01:12:07.925Z,63.10
2023-01-21T01:14:37.277Z,63.00
2023-01-21T01:17:05.206Z,63.20
2023-01-21T01:19:33.085Z,63.20
2023-01-21T01:22:00.981Z,63.20
2023-01-21T01:24:28.888Z,63.20
2023-01-21T01:26:56.749Z,63.10
2023-01-21T01:29:24.594Z,63.20
2023-01-21T01:31:53.838Z,63.20
2023-01-21T01:34:21.768Z,63.40
2023-01-21T01:36:50.055Z,63.50
2023-01-21T01:39:17.936Z,63.20
2023-01-21T01:41:45.823Z,62.80
2023-01-21T01:44:51.354Z,62.70
2023-01-21T01:47:20.570Z,62.60
2023-01-21T01:49:48.497Z,62.80
2023-01-21T01:52:16.517Z,62.90
2023-01-21T01:54:47.000Z,62.90
2023-01-21T01:57:15.919Z,62.90
2023-01-21T01:59:43.852Z,63.00
2023-01-21T02:02:13.881Z,63.00
2023-01-21T02:04:45.035Z,63.00
2023-01-21T02:07:12.997Z,63.20
2023-01-21T02:09:40.858Z,63.10
2023-01-21T02:12:08.786Z,63.10
2023-01-21T02:14:42.735Z,63.20
2023-01-21T02:17:18.193Z,63.10
2023-01-21T02:20:07.394Z,63.10
2023-01-21T02:22:36.212Z,63.20
2023-01-21T02:25:33.775Z,63.10
2023-01-21T02:28:27.052Z,63.20
2023-01-21T02:31:14.023Z,63.10
2023-01-21T02:33:54.216Z,63.10
2023-01-21T02:36:38.676Z,63.20
2023-01-21T02:39:12.134Z,63.20
2023-01-21T02:41:47.087Z,63.50
2023-01-21T02:44:16.191Z,63.40
2023-01-21T02:46:45.901Z,63.00
2023-01-21T02:49:17.889Z,62.60
2023-01-21T02:51:48.892Z,62.40
2023-01-21T02:54:17.417Z,63.30
2023-01-21T02:56:45.313Z,62.70
2023-01-21T02:59:13.347Z,62.60
2023-01-21T03:01:48.337Z,62.70
2023-01-21T03:04:38.270Z,62.80
2023-01-21T03:07:08.250Z,62.80
2023-01-21T03:09:36.097Z,63.00
2023-01-21T03:12:09.981Z,63.00
2023-01-21T03:14:57.181Z,63.20
2023-01-21T03:17:30.604Z,63.10
2023-01-21T03:20:03.350Z,63.10
2023-01-21T03:22:33.151Z,63.10
2023-01-21T03:25:02.131Z,63.20
2023-01-21T03:27:30.608Z,63.20
2023-01-21T03:30:00.035Z,63.20
2023-01-21T03:32:28.624Z,63.60
2023-01-21T03:34:56.731Z,63.30
2023-01-21T03:37:29.141Z,62.90
2023-01-21T03:40:03.273Z,62.70
2023-01-21T03:42:31.187Z,62.80
2023-01-21T03:44:59.386Z,62.90
2023-01-21T03:47:31.273Z,63.00
2023-01-21T03:50:00.304Z,62.90
2023-01-21T03:52:29.511Z,63.00
2023-01-21T03:54:57.379Z,63.00
2023-01-21T03:57:25.300Z,63.10
2023-01-21T03:59:53.365Z,63.00
2023-01-21T04:02:21.293Z,63.10
2023-01-21T04:04:49.272Z,63.50
2023-01-21T04:07:17.245Z,63.20
2023-01-21T04:09:46.490Z,62.90
2023-01-21T04:12:14.380Z,62.70
2023-01-21T04:14:42.254Z,62.70
2023-01-21T04:17:10.187Z,62.70
2023-01-21T04:19:38.081Z,62.90
2023-01-21T04:22:05.954Z,63.00
2023-01-21T04:24:34.740Z,62.90
2023-01-21T04:27:04.095Z,63.00
2023-01-21T04:29:32.007Z,63.10
2023-01-21T04:32:00.034Z,63.10
2023-01-21T04:34:27.922Z,63.20
2023-01-21T04:36:55.793Z,63.20
2023-01-21T04:39:23.662Z,63.50
2023-01-21T04:41:51.567Z,63.30
2023-01-21T04:44:20.774Z,62.80
2023-01-21T04:46:48.682Z,62.70
2023-01-21T04:49:16.524Z,62.70
2023-01-21T04:51:44.404Z,62.80
2023-01-21T04:54:12.418Z,62.90
2023-01-21T04:56:40.293Z,62.80
2023-01-21T04:59:08.219Z,62.80
2023-01-21T05:01:37.505Z,62.90
2023-01-21T05:04:05.891Z,62.90
2023-01-21T05:06:33.763Z,62.90
2023-01-21T05:09:01.655Z,63.00
2023-01-21T05:11:29.502Z,63.10
2023-01-21T05:13:57.397Z,63.00
2023-01-21T05:16:25.317Z,62.70
2023-01-21T05:18:54.615Z,62.50
2023-01-21T05:21:22.541Z,62.50
2023-01-21T05:23:50.409Z,62.60
2023-01-21T05:26:19.352Z,62.60
2023-01-21T05:28:47.213Z,62.70
2023-01-21T05:31:15.149Z,62.60
2023-01-21T05:33:43.961Z,62.60
2023-01-21T05:36:13.226Z,62.70
2023-01-21T05:38:41.153Z,62.70
2023-01-21T05:41:09.034Z,62.70
2023-01-21T05:43:36.964Z,62.80
2023-01-21T05:46:04.938Z,63.10
2023-01-21T05:48:32.833Z,63.10
2023-01-21T05:51:00.750Z,62.60
2023-01-21T05:53:30.021Z,62.30
2023-01-21T05:56:00.542Z,62.30
2023-01-21T05:58:28.442Z,62.30
2023-01-21T06:00:57.672Z,62.50
2023-01-21T06:03:25.752Z,62.50
2023-01-21T06:05:53.732Z,62.50
2023-01-21T06:08:21.584Z,62.50
2023-01-21T06:10:50.801Z,62.50
2023-01-21T06:13:18.836Z,62.60
2023-01-21T06:15:46.746Z,62.80
2023-01-21T06:18:14.686Z,62.80
2023-01-21T06:20:42.588Z,62.80
2023-01-21T06:23:10.825Z,62.70
2023-01-21T06:25:38.745Z,62.80
2023-01-21T06:28:08.009Z,62.90
2023-01-21T06:30:35.906Z,62.80
2023-01-21T06:33:03.765Z,63.00
2023-01-21T06:35:31.636Z,62.90
2023-01-21T06:37:59.494Z,63.00
2023-01-21T06:40:27.400Z,62.90
2023-01-21T06:42:55.315Z,62.90
2023-01-21T06:45:24.580Z,63.00
2023-01-21T06:47:52.458Z,63.30
2023-01-21T06:50:20.417Z,63.00
2023-01-21T06:52:48.821Z,63.20
2023-01-21T06:55:17.261Z,63.00
2023-01-21T06:57:45.155Z,62.50
2023-01-21T07:00:13.606Z,62.00
2023-01-21T07:02:42.852Z,62.00
2023-01-21T07:05:10.981Z,61.90
2023-01-21T07:07:38.870Z,62.20
2023-01-21T07:10:09.044Z,62.10
2023-01-21T07:12:36.972Z,62.10
2023-01-21T07:15:05.812Z,62.10
2023-01-21T07:17:33.836Z,62.20
2023-01-21T07:20:04.964Z,62.20
2023-01-21T07:22:34.477Z,62.40
2023-01-21T07:25:02.329Z,62.40
2023-01-21T07:27:30.164Z,62.40
2023-01-21T07:29:58.018Z,62.30
2023-01-21T07:32:25.926Z,62.40
2023-01-21T07:34:53.817Z,62.50
2023-01-21T07:37:23.353Z,62.50
2023-01-21T07:39:53.152Z,62.70
2023-01-21T07:42:22.375Z,63.00
2023-01-21T07:44:50.221Z,62.90
2023-01-21T07:47:18.095Z,62.20
2023-01-21T07:49:45.931Z,62.10
2023-01-21T07:52:13.848Z,62.20
2023-01-21T07:54:43.078Z,62.20
2023-01-21T07:57:10.950Z,62.50
2023-01-21T07:59:38.798Z,62.40
2023-01-21T08:02:06.732Z,62.30
2023-01-21T08:04:34.676Z,62.30
2023-01-21T08:07:11.952Z,62.20
2023-01-21T08:09:42.218Z,62.40
2023-01-21T08:12:11.514Z,62.40
2023-01-21T08:14:39.537Z,62.50
2023-01-21T08:17:07.435Z,62.50
2023-01-21T08:19:35.457Z,62.50
2023-01-21T08:22:03.328Z,62.50
2023-01-21T08:24:31.182Z,62.50
2023-01-21T08:26:59.851Z,62.60
2023-01-21T08:29:29.060Z,62.70
2023-01-21T08:31:57.018Z,63.00
2023-01-21T08:34:25.575Z,62.80
2023-01-21T08:36:53.444Z,62.30
2023-01-21T08:39:21.336Z,62.00
2023-01-21T08:41:49.257Z,61.90
2023-01-21T08:44:17.143Z,62.10
2023-01-21T08:46:46.401Z,62.30
2023-01-21T08:49:14.238Z,62.30
2023-01-21T08:51:42.447Z,62.20
2023-01-21T08:54:10.321Z,62.20
2023-01-21T08:56:38.201Z,62.40
2023-01-21T08:59:06.658Z,62.30
2023-01-21T09:01:36.145Z,62.40
2023-01-21T09:04:05.684Z,62.70
2023-01-21T09:06:33.637Z,62.50
2023-01-21T09:09:01.588Z,62.50
2023-01-21T09:11:30.381Z,62.50
2023-01-21T09:14:03.164Z,62.50
2023-01-21T09:16:32.113Z,62.50
2023-01-21T09:19:00.129Z,62.70
2023-01-21T09:21:29.479Z,62.90
2023-01-21T09:23:57.462Z,62.90
2023-01-21T09:26:25.475Z,62.50
2023-01-21T09:28:54.156Z,62.10
2023-01-21T09:31:23.446Z,62.00
2023-01-21T09:33:52.242Z,61.90
2023-01-21T09:36:21.014Z,62.10
2023-01-21T09:38:50.393Z,62.30
2023-01-21T09:41:26.626Z,62.20
2023-01-21T09:43:59.250Z,62.20
2023-01-21T09:46:32.807Z,62.20
2023-01-21T09:49:00.690Z,62.30
2023-01-21T09:51:29.940Z,62.40
2023-01-21T09:53:59.438Z,62.70
2023-01-21T09:56:29.546Z,62.40
2023-01-21T09:59:01.145Z,62.50
2023-01-21T10:01:32.210Z,62.50
2023-01-21T10:04:03.054Z,62.60
2023-01-21T10:06:35.101Z,62.60
2023-01-21T10:09:20.739Z,62.50
2023-01-21T10:12:06.749Z,62.80
2023-01-21T10:14:57.102Z,62.90
2023-01-21T10:17:30.286Z,62.10
2023-01-21T10:20:01.886Z,62.10
2023-01-21T10:22:29.820Z,62.10
2023-01-21T10:25:01.055Z,62.00
2023-01-21T10:27:29.302Z,62.10
2023-01-21T10:30:01.292Z,62.10
2023-01-21T10:32:29.248Z,62.20
2023-01-21T10:34:58.471Z,62.30
2023-01-21T10:37:30.551Z,62.40
2023-01-21T10:40:03.727Z,62.40
2023-01-21T10:42:51.564Z,62.40
2023-01-21T10:45:26.725Z,62.60
2023-01-21T10:47:58.477Z,62.70
2023-01-21T10:50:31.085Z,62.20
2023-01-21T10:53:01.205Z,62.10
2023-01-21T10:55:36.532Z,62.10
2023-01-21T10:58:05.813Z,62.20
2023-01-21T11:00:35.359Z,62.20
2023-01-21T11:03:05.064Z,62.30
2023-01-21T11:05:32.942Z,62.20
2023-01-21T11:08:00.848Z,62.10
2023-01-21T11:10:30.100Z,62.30
2023-01-21T11:12:58.138Z,62.40
2023-01-21T11:15:26.066Z,62.50
2023-01-21T11:17:56.399Z,62.50
2023-01-21T11:20:26.516Z,62.80
2023-01-21T11:22:54.437Z,62.70
2023-01-21T11:25:34.829Z,62.20
2023-01-21T11:28:02.887Z,61.80
2023-01-21T11:30:49.739Z,61.90
2023-01-21T11:33:26.793Z,62.00
2023-01-21T11:35:55.215Z,62.20
2023-01-21T11:38:27.361Z,62.10
2023-01-21T11:41:04.140Z,62.00
2023-01-21T11:43:36.601Z,62.10
2023-01-21T11:46:27.476Z,62.30
2023-01-21T11:48:56.075Z,62.50
2023-01-21T11:51:23.918Z,61.10
2023-01-21T11:54:09.018Z,60.30
2023-01-21T11:56:38.250Z,60.10
2023-01-21T11:59:13.872Z,60.20
2023-01-21T12:01:41.735Z,60.60
2023-01-21T12:04:12.878Z,60.60
2023-01-21T12:06:40.779Z,60.90
2023-01-21T12:09:08.676Z,59.10
2023-01-21T12:11:37.892Z,58.40
2023-01-21T12:14:08.657Z,58.00
2023-01-21T12:16:37.147Z,58.80
2023-01-21T12:19:32.201Z,58.90
2023-01-21T12:22:19.651Z,59.10
2023-01-21T12:25:14.021Z,58.20
2023-01-21T12:27:48.415Z,57.70
2023-01-21T12:30:21.546Z,57.90
2023-01-21T12:32:51.280Z,58.10
2023-01-21T12:35:23.499Z,58.40
2023-01-21T12:37:54.122Z,58.60
2023-01-21T12:40:23.769Z,58.80
2023-01-21T12:42:55.192Z,59.10
2023-01-21T12:45:24.962Z,59.20
2023-01-21T12:47:54.948Z,59.20
2023-01-21T12:50:25.529Z,59.50
2023-01-21T12:53:00.015Z,59.60
2023-01-21T12:55:31.419Z,59.70
2023-01-21T12:58:02.308Z,59.70
2023-01-21T13:00:31.391Z,59.80
2023-01-21T13:03:04.863Z,59.60
2023-01-21T13:05:36.265Z,59.60
2023-01-21T13:08:10.549Z,59.60
2023-01-21T13:10:39.405Z,59.80
2023-01-21T13:13:13.278Z,59.80
2023-01-21T13:15:41.454Z,60.00
2023-01-21T13:18:12.130Z,60.00
2023-01-21T13:20:42.382Z,60.10
2023-01-21T13:23:14.501Z,60.30
2023-01-21T13:25:44.350Z,60.40
2023-01-21T13:28:16.179Z,60.40
2023-01-21T13:30:46.836Z,60.40
2023-01-21T13:33:21.183Z,60.60
2023-01-21T13:35:52.063Z,60.50
2023-01-21T13:38:25.347Z,60.60
2023-01-21T13:40:54.869Z,60.60
2023-01-21T13:43:35.353Z,60.70
2023-01-21T13:46:09.695Z,60.80
2023-01-21T13:48:49.423Z,60.90
2023-01-21T13:51:35.010Z,60.50
2023-01-21T13:54:15.267Z,60.40
2023-01-21T13:56:59.995Z,60.40
2023-01-21T13:59:31.124Z,60.60
2023-01-21T14:02:00.481Z,60.80
2023-01-21T14:04:30.799Z,60.90
2023-01-21T14:07:00.773Z,61.10
2023-01-21T14:09:30.308Z,61.00
2023-01-21T14:11:59.885Z,61.10
2023-01-21T14:14:47.705Z,61.10
2023-01-21T14:17:52.848Z,61.20
2023-01-21T14:20:38.862Z,61.20
2023-01-21T14:23:25.967Z,61.30
2023-01-21T14:26:02.796Z,61.30
2023-01-21T14:28:34.147Z,61.40
2023-01-21T14:31:04.979Z,61.40
2023-01-21T14:33:38.268Z,61.50
2023-01-21T14:36:08.536Z,62.40
2023-01-21T14:38:41.182Z,61.80
2023-01-21T14:41:09.776Z,61.70
2023-01-21T14:43:47.828Z,61.20
2023-01-21T14:46:30.855Z,60.90
2023-01-21T14:49:06.393Z,61.00
2023-01-21T14:51:35.632Z,61.10
2023-01-21T14:54:04.274Z,61.40
2023-01-21T14:56:32.765Z,61.30
2023-01-21T14:59:01.961Z,61.40
2023-01-21T15:01:34.008Z,61.40
2023-01-21T15:04:04.988Z,61.60
2023-01-21T15:06:33.023Z,61.80
2023-01-21T15:09:00.950Z,61.70
2023-01-21T15:11:31.234Z,61.80
2023-01-21T15:14:07.233Z,61.80
2023-01-21T15:16:37.502Z,61.90
2023-01-21T15:19:28.655Z,61.90
2023-01-21T15:22:20.154Z,62.00
2023-01-21T15:25:19.876Z,62.00
2023-01-21T15:28:36.432Z,61.60
2023-01-21T15:31:05.642Z,58.30
2023-01-21T15:33:37.746Z,59.60
2023-01-21T15:36:06.456Z,59.60
2023-01-21T15:38:34.292Z,59.70
2023-01-21T15:41:03.039Z,59.80
2023-01-21T15:43:34.155Z,60.00
2023-01-21T15:46:10.143Z,59.90
2023-01-21T15:49:05.367Z,60.10
2023-01-21T15:51:40.255Z,60.10
2023-01-21T15:54:26.617Z,60.20
2023-01-21T15:56:58.271Z,60.30
2023-01-21T15:59:32.720Z,60.40
2023-01-21T16:02:15.156Z,60.50
2023-01-21T16:04:47.900Z,60.60
2023-01-21T16:07:20.411Z,60.70
2023-01-21T16:09:54.861Z,60.80
2023-01-21T16:12:26.114Z,61.00
2023-01-21T16:15:01.040Z,61.10
2023-01-21T16:17:36.540Z,61.20
2023-01-21T16:20:07.232Z,61.20
2023-01-21T16:22:36.137Z,59.30
2023-01-21T16:25:05.405Z,59.80
2023-01-21T16:27:34.572Z,59.80
2023-01-21T16:30:03.300Z,60.00
2023-01-21T16:32:32.333Z,60.10
2023-01-21T16:35:00.405Z,60.10
2023-01-21T16:37:30.250Z,60.70
2023-01-21T16:40:14.743Z,60.90
2023-01-21T16:42:42.919Z,61.20
2023-01-21T16:45:17.569Z,61.40
2023-01-21T16:47:45.761Z,61.50
2023-01-21T16:50:19.101Z,61.60
2023-01-21T16:52:48.397Z,61.20
2023-01-21T16:55:19.643Z,61.10
2023-01-21T16:57:49.779Z,61.10
2023-01-21T17:00:26.027Z,61.20
2023-01-21T17:02:54.862Z,61.20
2023-01-21T17:05:22.846Z,61.30
2023-01-21T17:07:52.901Z,61.20
2023-01-21T17:10:21.587Z,61.20
2023-01-21T17:12:49.538Z,61.30
2023-01-21T17:15:18.902Z,61.30
2023-01-21T17:17:47.041Z,61.20
2023-01-21T17:20:34.093Z,61.10
2023-01-21T17:23:04.490Z,61.10
2023-01-21T17:25:32.375Z,61.00
2023-01-21T17:28:00.265Z,61.00
2023-01-21T17:30:30.212Z,61.00
2023-01-21T17:32:58.875Z,61.10
2023-01-21T17:35:27.537Z,61.10
2023-01-21T17:37:56.552Z,61.10
2023-01-21T17:40:27.182Z,61.10
2023-01-21T17:42:55.076Z,61.10
2023-01-21T17:45:28.410Z,61.00
2023-01-21T17:48:14.424Z,60.70
2023-01-21T17:50:46.169Z,60.50
2023-01-21T17:53:18.975Z,60.60
2023-01-21T17:55:57.642Z,60.60
2023-01-21T17:58:45.806Z,60.70
2023-01-21T18:01:13.982Z,60.70
2023-01-21T18:03:41.977Z,60.80
2023-01-21T18:06:19.694Z,60.90
2023-01-21T18:08:47.656Z,61.00
2023-01-21T18:11:17.540Z,61.10
2023-01-21T18:13:45.464Z,61.20
2023-01-21T18:16:13.459Z,61.10
2023-01-21T18:18:41.925Z,61.20
2023-01-21T18:21:15.872Z,61.30
2023-01-21T18:23:43.817Z,61.40
2023-01-21T18:26:14.691Z,61.40
2023-01-21T18:28:43.933Z,61.40
2023-01-21T18:31:11.977Z,61.60
2023-01-21T18:33:39.918Z,61.70
2023-01-21T18:36:11.605Z,61.40
2023-01-21T18:38:39.637Z,61.10
2023-01-21T18:41:08.855Z,61.10
2023-01-21T18:43:36.741Z,61.20
2023-01-21T18:46:09.684Z,61.30
2023-01-21T18:48:37.576Z,61.50
2023-01-21T18:51:05.797Z,61.30
2023-01-21T18:53:33.740Z,61.40
2023-01-21T18:56:01.638Z,61.50
2023-01-21T18:58:29.578Z,61.50
2023-01-21T19:00:57.477Z,61.60
2023-01-21T19:03:26.778Z,61.60
2023-01-21T19:05:54.660Z,61.90
2023-01-21T19:08:24.701Z,61.90
2023-01-21T19:10:52.861Z,61.50
2023-01-21T19:13:20.744Z,61.50
2023-01-21T19:15:48.792Z,61.50
2023-01-21T19:18:17.229Z,61.60
2023-01-21T19:20:46.514Z,61.60
2023-01-21T19:23:16.196Z,61.60
2023-01-21T19:25:51.578Z,61.70
2023-01-21T19:28:19.469Z,61.70
2023-01-21T19:30:49.582Z,61.80
2023-01-21T19:33:17.527Z,61.70
2023-01-21T19:35:46.771Z,61.80
2023-01-21T19:38:16.177Z,62.00
2023-01-21T19:40:44.125Z,62.10
2023-01-21T19:43:13.300Z,61.90
2023-01-21T19:45:41.264Z,61.60
2023-01-21T19:48:12.237Z,61.50
2023-01-21T19:50:40.548Z,61.60
2023-01-21T19:53:10.661Z,61.60
2023-01-21T19:55:39.658Z,61.60
2023-01-21T19:58:19.493Z,61.60
2023-01-21T20:00:48.944Z,61.70
2023-01-21T20:03:17.172Z,61.90
2023-01-21T20:05:45.064Z,61.90
2023-01-21T20:08:15.296Z,61.90
2023-01-21T20:10:43.854Z,62.00
2023-01-21T20:13:12.969Z,62.00
2023-01-21T20:15:40.934Z,62.00
2023-01-21T20:18:11.722Z,62.00
2023-01-21T20:20:39.608Z,62.00
2023-01-21T20:23:07.571Z,62.10
2023-01-21T20:25:38.711Z,62.10
2023-01-21T20:28:12.539Z,62.30
2023-01-21T20:30:40.480Z,62.20
2023-01-21T20:33:10.512Z,61.90
2023-01-21T20:35:38.373Z,61.60
2023-01-21T20:38:11.994Z,61.60
2023-01-21T20:40:41.238Z,61.60
2023-01-21T20:43:09.191Z,61.70
2023-01-21T20:45:39.874Z,62.00
2023-01-21T20:48:07.860Z,61.80
2023-01-21T20:50:35.909Z,61.90
2023-01-21T20:53:04.589Z,61.80
2023-01-21T20:55:32.492Z,61.90
2023-01-21T20:58:01.747Z,62.00
2023-01-21T21:00:31.948Z,62.10
2023-01-21T21:02:59.880Z,62.00
2023-01-21T21:05:28.182Z,62.00
2023-01-21T21:07:56.106Z,62.00
2023-01-21T21:10:25.291Z,62.10
2023-01-21T21:12:55.377Z,62.10
2023-01-21T21:15:24.654Z,62.20
2023-01-21T21:17:52.539Z,62.30
2023-01-21T21:20:22.669Z,62.30
2023-01-21T21:22:50.681Z,62.30
2023-01-21T21:25:19.718Z,62.30
2023-01-21T21:27:48.016Z,62.20
2023-01-21T21:30:16.960Z,62.50
2023-01-21T21:32:46.207Z,62.30
2023-01-21T21:35:21.129Z,62.50
2023-01-21T21:37:49.208Z,62.40
2023-01-21T21:40:17.254Z,62.00
2023-01-21T21:43:02.886Z,61.60
2023-01-21T21:45:30.746Z,61.60
2023-01-21T21:48:17.495Z,61.60
2023-01-21T21:50:45.443Z,61.80
2023-01-21T21:53:13.432Z,61.90
2023-01-21T21:55:41.325Z,61.90
2023-01-21T21:58:09.210Z,61.90
2023-01-21T22:00:37.139Z,62.00
2023-01-21T22:03:09.918Z,62.10
2023-01-21T22:05:37.826Z,62.10
2023-01-21T22:08:06.036Z,62.20
2023-01-21T22:10:33.978Z,62.20
2023-01-21T22:13:01.937Z,62.20
2023-01-21T22:15:29.898Z,62.30
2023-01-21T22:17:57.814Z,62.30
2023-01-21T22:20:27.053Z,62.20
2023-01-21T22:22:54.989Z,62.40
2023-01-21T22:25:22.911Z,62.40
2023-01-21T22:27:50.833Z,62.30
2023-01-21T22:30:19.070Z,62.00
2023-01-21T22:32:46.955Z,62.00
2023-01-21T22:35:14.944Z,61.90
2023-01-21T22:37:44.241Z,62.00
2023-01-21T22:40:13.496Z,62.10
2023-01-21T22:42:41.357Z,62.10
2023-01-21T22:45:12.205Z,62.10
2023-01-21T22:47:40.085Z,62.10
2023-01-21T22:50:08.906Z,62.10
2023-01-21T22:52:36.792Z,62.30
2023-01-21T22:55:07.261Z,62.20
2023-01-21T22:57:35.196Z,62.40
2023-01-21T23:00:03.111Z,62.40
2023-01-21T23:02:30.984Z,62.00
2023-01-21T23:04:58.891Z,61.90
2023-01-21T23:07:26.965Z,62.00
2023-01-21T23:09:54.880Z,61.90
2023-01-21T23:12:24.153Z,62.10
2023-01-21T23:14:52.035Z,62.10
2023-01-21T23:17:19.968Z,62.10
2023-01-21T23:19:47.798Z,62.20
2023-01-21T23:22:15.687Z,62.30
2023-01-21T23:24:43.582Z,62.30
2023-01-21T23:27:11.477Z,62.20
2023-01-21T23:29:40.727Z,62.40
2023-01-21T23:32:08.630Z,62.50
2023-01-21T23:34:36.560Z,62.20
2023-01-21T23:37:04.409Z,62.10
2023-01-21T23:39:32.273Z,62.10
2023-01-21T23:42:00.167Z,62.10
2023-01-21T23:44:27.999Z,62.20
2023-01-21T23:46:57.204Z,62.40
2023-01-21T23:49:25.077Z,62.30
2023-01-21T23:51:52.943Z,62.20
2023-01-21T23:54:20.780Z,62.20
2023-01-21T23:56:48.617Z,62.30
2023-01-21T23:59:16.441Z,62.40
